sensor_id;sensor_type;location;lat;lon;timestamp;temperature;humidity
70154;DHT22;57519;51.494;-2.626;2023-04-24T00:00:33;5.73;91.08
70154;DHT22;57519;51.494;-2.626;2023-04-24T00:02:58;5.65;90.95
70154;DHT22;57519;51.494;-2.626;2023-04-24T00:05:24;5.59;91.29
70154;DHT22;57519;51.494;-2.626;2023-04-24T00:07:50;5.54;91.14
70154;DHT22;57519;51.494;-2.626;2023-04-24T00:10:18;5.61;91.32
70154;DHT22;57519;51.494;-2.626;2023-04-24T00:12:44;5.59;91.23
70154;DHT22;57519;51.494;-2.626;2023-04-24T00:15:10;5.91;92.24
70154;DHT22;57519;51.494;-2.626;2023-04-24T00:17:36;6.16;92.11
70154;DHT22;57519;51.494;-2.626;2023-04-24T00:20:01;6.05;90.60
70154;DHT22;57519;51.494;-2.626;2023-04-24T00:22:30;5.91;90.22
70154;DHT22;57519;51.494;-2.626;2023-04-24T00:24:56;5.78;90.33
70154;DHT22;57519;51.494;-2.626;2023-04-24T00:27:22;5.83;90.71
70154;DHT22;57519;51.494;-2.626;2023-04-24T00:29:48;5.93;90.89
70154;DHT22;57519;51.494;-2.626;2023-04-24T00:32:13;6.12;91.60
70154;DHT22;57519;51.494;-2.626;2023-04-24T00:34:40;6.24;91.67
70154;DHT22;57519;51.494;-2.626;2023-04-24T00:37:05;6.09;90.76
70154;DHT22;57519;51.494;-2.626;2023-04-24T00:39:31;5.86;90.27
70154;DHT22;57519;51.494;-2.626;2023-04-24T00:41:57;5.81;90.60
70154;DHT22;57519;51.494;-2.626;2023-04-24T00:44:22;5.76;90.63
70154;DHT22;57519;51.494;-2.626;2023-04-24T00:46:49;5.64;90.53
70154;DHT22;57519;51.494;-2.626;2023-04-24T00:49:18;5.59;90.82
70154;DHT22;57519;51.494;-2.626;2023-04-24T00:51:44;5.50;91.12
70154;DHT22;57519;51.494;-2.626;2023-04-24T00:54:13;5.40;91.39
70154;DHT22;57519;51.494;-2.626;2023-04-24T00:56:40;5.45;91.53
70154;DHT22;57519;51.494;-2.626;2023-04-24T00:59:06;5.44;91.38
70154;DHT22;57519;51.494;-2.626;2023-04-24T01:01:31;5.35;91.34
70154;DHT22;57519;51.494;-2.626;2023-04-24T01:03:58;5.35;91.57
70154;DHT22;57519;51.494;-2.626;2023-04-24T01:06:27;5.55;92.33
70154;DHT22;57519;51.494;-2.626;2023-04-24T01:08:54;5.55;91.85
70154;DHT22;57519;51.494;-2.626;2023-04-24T01:11:21;5.38;91.13
70154;DHT22;57519;51.494;-2.626;2023-04-24T01:13:47;5.27;91.13
70154;DHT22;57519;51.494;-2.626;2023-04-24T01:16:16;5.19;91.07
70154;DHT22;57519;51.494;-2.626;2023-04-24T01:18:43;5.06;91.13
70154;DHT22;57519;51.494;-2.626;2023-04-24T01:21:11;5.05;91.32
70154;DHT22;57519;51.494;-2.626;2023-04-24T01:23:38;5.03;91.66
70154;DHT22;57519;51.494;-2.626;2023-04-24T01:26:04;5.10;92.01
70154;DHT22;57519;51.494;-2.626;2023-04-24T01:28:29;5.06;91.71
70154;DHT22;57519;51.494;-2.626;2023-04-24T01:30:55;5.01;91.72
70154;DHT22;57519;51.494;-2.626;2023-04-24T01:33:21;4.95;91.54
70154;DHT22;57519;51.494;-2.626;2023-04-24T01:35:48;4.96;92.00
70154;DHT22;57519;51.494;-2.626;2023-04-24T01:38:13;4.92;91.84
70154;DHT22;57519;51.494;-2.626;2023-04-24T01:40:39;5.00;92.20
70154;DHT22;57519;51.494;-2.626;2023-04-24T01:43:04;4.89;91.77
70154;DHT22;57519;51.494;-2.626;2023-04-24T01:45:30;4.86;91.81
70154;DHT22;57519;51.494;-2.626;2023-04-24T01:47:56;4.83;91.62
70154;DHT22;57519;51.494;-2.626;2023-04-24T01:50:21;4.72;91.39
70154;DHT22;57519;51.494;-2.626;2023-04-24T01:52:47;4.69;91.36
70154;DHT22;57519;51.494;-2.626;2023-04-24T01:55:12;4.62;91.32
70154;DHT22;57519;51.494;-2.626;2023-04-24T01:57:38;4.61;91.40
70154;DHT22;57519;51.494;-2.626;2023-04-24T02:00:04;4.68;91.53
70154;DHT22;57519;51.494;-2.626;2023-04-24T02:02:30;4.72;91.40
70154;DHT22;57519;51.494;-2.626;2023-04-24T02:04:56;4.73;91.22
70154;DHT22;57519;51.494;-2.626;2023-04-24T02:07:22;4.71;91.37
70154;DHT22;57519;51.494;-2.626;2023-04-24T02:09:47;4.75;91.52
70154;DHT22;57519;51.494;-2.626;2023-04-24T02:12:13;4.73;91.47
70154;DHT22;57519;51.494;-2.626;2023-04-24T02:14:39;4.66;91.57
70154;DHT22;57519;51.494;-2.626;2023-04-24T02:17:04;4.75;91.62
70154;DHT22;57519;51.494;-2.626;2023-04-24T02:19:30;4.75;91.61
70154;DHT22;57519;51.494;-2.626;2023-04-24T02:21:56;4.85;91.76
70154;DHT22;57519;51.494;-2.626;2023-04-24T02:24:21;4.79;91.51
70154;DHT22;57519;51.494;-2.626;2023-04-24T02:26:47;4.83;91.59
70154;DHT22;57519;51.494;-2.626;2023-04-24T02:29:12;4.86;91.45
70154;DHT22;57519;51.494;-2.626;2023-04-24T02:31:37;4.85;91.43
70154;DHT22;57519;51.494;-2.626;2023-04-24T02:34:03;4.86;91.73
70154;DHT22;57519;51.494;-2.626;2023-04-24T02:36:28;4.97;91.83
70154;DHT22;57519;51.494;-2.626;2023-04-24T02:38:54;4.95;91.65
70154;DHT22;57519;51.494;-2.626;2023-04-24T02:41:19;5.09;91.97
70154;DHT22;57519;51.494;-2.626;2023-04-24T02:43:44;5.23;92.10
70154;DHT22;57519;51.494;-2.626;2023-04-24T02:46:10;5.31;91.83
70154;DHT22;57519;51.494;-2.626;2023-04-24T02:48:35;5.40;91.56
70154;DHT22;57519;51.494;-2.626;2023-04-24T02:51:01;5.59;91.74
70154;DHT22;57519;51.494;-2.626;2023-04-24T02:53:26;5.73;91.61
70154;DHT22;57519;51.494;-2.626;2023-04-24T02:55:52;5.59;90.92
70154;DHT22;57519;51.494;-2.626;2023-04-24T02:58:17;5.62;90.93
70154;DHT22;57519;51.494;-2.626;2023-04-24T03:00:45;5.76;91.25
70154;DHT22;57519;51.494;-2.626;2023-04-24T03:03:10;5.81;91.23
70154;DHT22;57519;51.494;-2.626;2023-04-24T03:05:36;5.89;91.20
70154;DHT22;57519;51.494;-2.626;2023-04-24T03:08:01;5.96;91.13
70154;DHT22;57519;51.494;-2.626;2023-04-24T03:10:27;6.03;91.22
70154;DHT22;57519;51.494;-2.626;2023-04-24T03:12:52;5.93;90.73
70154;DHT22;57519;51.494;-2.626;2023-04-24T03:15:18;5.76;90.72
70154;DHT22;57519;51.494;-2.626;2023-04-24T03:17:43;5.48;90.98
70154;DHT22;57519;51.494;-2.626;2023-04-24T03:20:09;5.47;91.49
70154;DHT22;57519;51.494;-2.626;2023-04-24T03:22:34;5.45;91.84
70154;DHT22;57519;51.494;-2.626;2023-04-24T03:25:00;5.51;91.91
70154;DHT22;57519;51.494;-2.626;2023-04-24T03:27:26;5.44;91.93
70154;DHT22;57519;51.494;-2.626;2023-04-24T03:29:52;5.40;92.47
70154;DHT22;57519;51.494;-2.626;2023-04-24T03:32:21;5.38;92.58
70154;DHT22;57519;51.494;-2.626;2023-04-24T03:34:46;5.45;92.48
70154;DHT22;57519;51.494;-2.626;2023-04-24T03:37:12;5.41;92.51
70154;DHT22;57519;51.494;-2.626;2023-04-24T03:39:37;5.37;92.51
70154;DHT22;57519;51.494;-2.626;2023-04-24T03:42:03;5.35;93.00
70154;DHT22;57519;51.494;-2.626;2023-04-24T03:44:28;5.43;93.32
70154;DHT22;57519;51.494;-2.626;2023-04-24T03:46:54;5.50;93.24
70154;DHT22;57519;51.494;-2.626;2023-04-24T03:49:19;5.52;93.03
70154;DHT22;57519;51.494;-2.626;2023-04-24T03:51:45;5.45;92.61
70154;DHT22;57519;51.494;-2.626;2023-04-24T03:54:11;5.43;92.53
70154;DHT22;57519;51.494;-2.626;2023-04-24T03:56:36;5.35;92.46
70154;DHT22;57519;51.494;-2.626;2023-04-24T03:59:01;5.33;92.87
70154;DHT22;57519;51.494;-2.626;2023-04-24T04:01:27;5.44;92.90
70154;DHT22;57519;51.494;-2.626;2023-04-24T04:03:53;5.48;92.81
70154;DHT22;57519;51.494;-2.626;2023-04-24T04:06:19;5.51;92.63
70154;DHT22;57519;51.494;-2.626;2023-04-24T04:08:44;5.59;92.90
70154;DHT22;57519;51.494;-2.626;2023-04-24T04:11:10;5.58;92.75
70154;DHT22;57519;51.494;-2.626;2023-04-24T04:13:35;5.56;92.55
70154;DHT22;57519;51.494;-2.626;2023-04-24T04:16:01;5.58;92.40
70154;DHT22;57519;51.494;-2.626;2023-04-24T04:18:26;5.54;92.34
70154;DHT22;57519;51.494;-2.626;2023-04-24T04:23:17;5.56;92.45
70154;DHT22;57519;51.494;-2.626;2023-04-24T04:25:42;5.58;92.36
70154;DHT22;57519;51.494;-2.626;2023-04-24T04:28:08;5.65;92.47
70154;DHT22;57519;51.494;-2.626;2023-04-24T04:30:33;5.69;92.43
70154;DHT22;57519;51.494;-2.626;2023-04-24T04:32:59;5.64;92.26
70154;DHT22;57519;51.494;-2.626;2023-04-24T04:35:24;5.56;92.04
70154;DHT22;57519;51.494;-2.626;2023-04-24T04:37:50;5.59;92.37
70154;DHT22;57519;51.494;-2.626;2023-04-24T04:40:16;5.61;92.25
70154;DHT22;57519;51.494;-2.626;2023-04-24T04:42:42;5.62;92.23
70154;DHT22;57519;51.494;-2.626;2023-04-24T04:45:11;5.52;91.92
70154;DHT22;57519;51.494;-2.626;2023-04-24T04:47:37;5.43;91.67
70154;DHT22;57519;51.494;-2.626;2023-04-24T04:50:03;5.31;91.94
70154;DHT22;57519;51.494;-2.626;2023-04-24T04:52:29;5.17;91.66
70154;DHT22;57519;51.494;-2.626;2023-04-24T04:54:55;5.03;92.12
70154;DHT22;57519;51.494;-2.626;2023-04-24T04:57:20;4.92;91.99
70154;DHT22;57519;51.494;-2.626;2023-04-24T04:59:46;4.86;92.07
70154;DHT22;57519;51.494;-2.626;2023-04-24T05:02:12;4.85;91.99
70154;DHT22;57519;51.494;-2.626;2023-04-24T05:04:37;4.71;91.84
70154;DHT22;57519;51.494;-2.626;2023-04-24T05:07:03;4.59;91.99
70154;DHT22;57519;51.494;-2.626;2023-04-24T05:09:28;4.55;92.53
70154;DHT22;57519;51.494;-2.626;2023-04-24T05:11:55;4.55;92.72
70154;DHT22;57519;51.494;-2.626;2023-04-24T05:14:21;4.62;92.75
70154;DHT22;57519;51.494;-2.626;2023-04-24T05:16:47;4.76;93.11
70154;DHT22;57519;51.494;-2.626;2023-04-24T05:19:13;4.93;93.14
70154;DHT22;57519;51.494;-2.626;2023-04-24T05:21:39;5.00;93.03
70154;DHT22;57519;51.494;-2.626;2023-04-24T05:24:05;4.92;92.43
70154;DHT22;57519;51.494;-2.626;2023-04-24T05:26:31;4.80;92.72
70154;DHT22;57519;51.494;-2.626;2023-04-24T05:28:57;4.89;92.89
70154;DHT22;57519;51.494;-2.626;2023-04-24T05:31:22;5.01;92.85
70154;DHT22;57519;51.494;-2.626;2023-04-24T05:33:47;5.05;92.57
70154;DHT22;57519;51.494;-2.626;2023-04-24T05:36:13;5.12;92.55
70154;DHT22;57519;51.494;-2.626;2023-04-24T05:38:39;5.12;92.30
70154;DHT22;57519;51.494;-2.626;2023-04-24T05:41:04;5.12;92.30
70154;DHT22;57519;51.494;-2.626;2023-04-24T05:43:29;5.17;92.40
70154;DHT22;57519;51.494;-2.626;2023-04-24T05:45:55;5.34;92.40
70154;DHT22;57519;51.494;-2.626;2023-04-24T05:48:20;5.48;92.40
70154;DHT22;57519;51.494;-2.626;2023-04-24T05:50:47;5.62;92.26
70154;DHT22;57519;51.494;-2.626;2023-04-24T05:53:13;5.81;92.09
70154;DHT22;57519;51.494;-2.626;2023-04-24T05:55:38;5.99;92.10
70154;DHT22;57519;51.494;-2.626;2023-04-24T05:58:04;6.16;92.05
70154;DHT22;57519;51.494;-2.626;2023-04-24T06:00:30;6.37;91.90
70154;DHT22;57519;51.494;-2.626;2023-04-24T06:02:55;6.58;91.51
70154;DHT22;57519;51.494;-2.626;2023-04-24T06:05:21;6.86;91.31
70154;DHT22;57519;51.494;-2.626;2023-04-24T06:07:47;7.19;90.62
70154;DHT22;57519;51.494;-2.626;2023-04-24T06:10:13;7.17;88.75
70154;DHT22;57519;51.494;-2.626;2023-04-24T06:12:39;7.33;89.40
70154;DHT22;57519;51.494;-2.626;2023-04-24T06:15:05;7.47;88.34
70154;DHT22;57519;51.494;-2.626;2023-04-24T06:17:30;7.55;87.76
70154;DHT22;57519;51.494;-2.626;2023-04-24T06:19:56;7.64;87.24
70154;DHT22;57519;51.494;-2.626;2023-04-24T06:22:21;7.70;86.95
70154;DHT22;57519;51.494;-2.626;2023-04-24T06:24:47;7.79;87.00
70154;DHT22;57519;51.494;-2.626;2023-04-24T06:27:13;7.81;86.70
70154;DHT22;57519;51.494;-2.626;2023-04-24T06:32:04;7.85;86.49
70154;DHT22;57519;51.494;-2.626;2023-04-24T06:36:56;7.84;87.74
70154;DHT22;57519;51.494;-2.626;2023-04-24T06:39:21;7.85;88.15
70154;DHT22;57519;51.494;-2.626;2023-04-24T06:41:47;7.86;88.78
70154;DHT22;57519;51.494;-2.626;2023-04-24T06:44:13;7.70;88.55
70154;DHT22;57519;51.494;-2.626;2023-04-24T06:46:40;7.79;88.19
70154;DHT22;57519;51.494;-2.626;2023-04-24T06:49:15;7.81;88.26
70154;DHT22;57519;51.494;-2.626;2023-04-24T06:51:50;7.86;88.63
70154;DHT22;57519;51.494;-2.626;2023-04-24T06:54:18;7.89;89.52
70154;DHT22;57519;51.494;-2.626;2023-04-24T06:56:43;7.96;89.48
70154;DHT22;57519;51.494;-2.626;2023-04-24T06:59:11;8.09;89.49
70154;DHT22;57519;51.494;-2.626;2023-04-24T07:01:39;8.25;88.70
70154;DHT22;57519;51.494;-2.626;2023-04-24T07:06:43;8.39;86.26
70154;DHT22;57519;51.494;-2.626;2023-04-24T07:09:27;8.50;85.70
70154;DHT22;57519;51.494;-2.626;2023-04-24T07:12:03;8.57;85.85
70154;DHT22;57519;51.494;-2.626;2023-04-24T07:14:32;8.63;86.65
70154;DHT22;57519;51.494;-2.626;2023-04-24T07:16:58;8.80;86.25
70154;DHT22;57519;51.494;-2.626;2023-04-24T07:19:23;8.85;85.29
70154;DHT22;57519;51.494;-2.626;2023-04-24T07:21:49;9.04;85.61
70154;DHT22;57519;51.494;-2.626;2023-04-24T07:24:15;9.15;83.96
70154;DHT22;57519;51.494;-2.626;2023-04-24T07:26:40;9.23;83.47
70154;DHT22;57519;51.494;-2.626;2023-04-24T07:29:07;9.29;82.55
70154;DHT22;57519;51.494;-2.626;2023-04-24T07:31:33;9.32;82.24
70154;DHT22;57519;51.494;-2.626;2023-04-24T07:36:24;9.51;84.04
70154;DHT22;57519;51.494;-2.626;2023-04-24T07:38:51;9.54;83.05
70154;DHT22;57519;51.494;-2.626;2023-04-24T07:41:16;9.71;83.46
70154;DHT22;57519;51.494;-2.626;2023-04-24T07:46:17;10.16;81.07
70154;DHT22;57519;51.494;-2.626;2023-04-24T07:48:42;10.50;79.82
70154;DHT22;57519;51.494;-2.626;2023-04-24T07:53:36;10.94;75.99
70154;DHT22;57519;51.494;-2.626;2023-04-24T07:56:01;10.97;73.77
70154;DHT22;57519;51.494;-2.626;2023-04-24T07:58:27;11.08;75.67
70154;DHT22;57519;51.494;-2.626;2023-04-24T08:00:52;10.96;75.61
70154;DHT22;57519;51.494;-2.626;2023-04-24T08:03:18;10.98;75.34
70154;DHT22;57519;51.494;-2.626;2023-04-24T08:05:45;10.73;75.46
70154;DHT22;57519;51.494;-2.626;2023-04-24T08:08:10;10.66;75.74
70154;DHT22;57519;51.494;-2.626;2023-04-24T08:10:36;10.46;75.44
70154;DHT22;57519;51.494;-2.626;2023-04-24T08:13:01;10.28;75.84
70154;DHT22;57519;51.494;-2.626;2023-04-24T08:15:27;10.39;77.11
70154;DHT22;57519;51.494;-2.626;2023-04-24T08:17:53;10.35;76.90
70154;DHT22;57519;51.494;-2.626;2023-04-24T08:22:44;10.36;77.85
70154;DHT22;57519;51.494;-2.626;2023-04-24T08:25:10;10.28;79.09
70154;DHT22;57519;51.494;-2.626;2023-04-24T08:27:36;10.16;78.95
70154;DHT22;57519;51.494;-2.626;2023-04-24T08:48:09;9.19;87.39
70154;DHT22;57519;51.494;-2.626;2023-04-24T08:50:35;9.18;87.87
70154;DHT22;57519;51.494;-2.626;2023-04-24T08:55:29;9.02;88.31
70154;DHT22;57519;51.494;-2.626;2023-04-24T08:57:56;8.97;88.99
70154;DHT22;57519;51.494;-2.626;2023-04-24T09:00:21;9.01;89.74
70154;DHT22;57519;51.494;-2.626;2023-04-24T09:02:49;9.04;90.26
70154;DHT22;57519;51.494;-2.626;2023-04-24T09:05:17;8.74;88.81
70154;DHT22;57519;51.494;-2.626;2023-04-24T09:07:45;8.46;90.33
70154;DHT22;57519;51.494;-2.626;2023-04-24T09:10:11;8.30;90.84
70154;DHT22;57519;51.494;-2.626;2023-04-24T09:12:37;8.25;91.14
70154;DHT22;57519;51.494;-2.626;2023-04-24T09:15:03;8.22;91.69
70154;DHT22;57519;51.494;-2.626;2023-04-24T09:17:30;8.26;92.64
70154;DHT22;57519;51.494;-2.626;2023-04-24T09:19:56;8.26;92.27
70154;DHT22;57519;51.494;-2.626;2023-04-24T09:22:21;8.22;92.68
70154;DHT22;57519;51.494;-2.626;2023-04-24T09:24:47;8.13;92.84
70154;DHT22;57519;51.494;-2.626;2023-04-24T09:27:13;8.01;93.15
70154;DHT22;57519;51.494;-2.626;2023-04-24T09:29:53;7.98;93.65
70154;DHT22;57519;51.494;-2.626;2023-04-24T09:32:20;7.78;93.20
70154;DHT22;57519;51.494;-2.626;2023-04-24T09:35:14;7.73;93.59
70154;DHT22;57519;51.494;-2.626;2023-04-24T09:37:42;7.71;94.02
70154;DHT22;57519;51.494;-2.626;2023-04-24T09:40:19;7.68;94.07
70154;DHT22;57519;51.494;-2.626;2023-04-24T09:42:53;7.78;94.49
70154;DHT22;57519;51.494;-2.626;2023-04-24T09:45:19;7.79;94.51
70154;DHT22;57519;51.494;-2.626;2023-04-24T09:47:45;7.85;94.61
70154;DHT22;57519;51.494;-2.626;2023-04-24T09:50:16;7.84;94.45
70154;DHT22;57519;51.494;-2.626;2023-04-24T09:52:57;7.78;94.11
70154;DHT22;57519;51.494;-2.626;2023-04-24T09:55:23;7.70;94.03
70154;DHT22;57519;51.494;-2.626;2023-04-24T09:57:58;7.74;94.28
70154;DHT22;57519;51.494;-2.626;2023-04-24T10:00:29;7.89;94.87
70154;DHT22;57519;51.494;-2.626;2023-04-24T10:03:06;7.74;94.26
70154;DHT22;57519;51.494;-2.626;2023-04-24T10:05:33;7.79;94.34
70154;DHT22;57519;51.494;-2.626;2023-04-24T10:08:03;7.74;94.18
70154;DHT22;57519;51.494;-2.626;2023-04-24T10:10:31;7.89;94.29
70154;DHT22;57519;51.494;-2.626;2023-04-24T10:12:57;7.96;94.02
70154;DHT22;57519;51.494;-2.626;2023-04-24T10:15:22;8.05;94.14
70154;DHT22;57519;51.494;-2.626;2023-04-24T10:17:49;7.92;93.58
70154;DHT22;57519;51.494;-2.626;2023-04-24T10:20:21;7.81;93.70
70154;DHT22;57519;51.494;-2.626;2023-04-24T10:22:52;7.71;93.66
70154;DHT22;57519;51.494;-2.626;2023-04-24T10:25:22;7.73;94.03
70154;DHT22;57519;51.494;-2.626;2023-04-24T10:27:49;7.81;94.38
70154;DHT22;57519;51.494;-2.626;2023-04-24T10:30:15;7.73;94.13
70154;DHT22;57519;51.494;-2.626;2023-04-24T10:32:40;7.73;94.42
70154;DHT22;57519;51.494;-2.626;2023-04-24T10:35:07;7.67;94.56
70154;DHT22;57519;51.494;-2.626;2023-04-24T10:37:50;7.79;94.77
70154;DHT22;57519;51.494;-2.626;2023-04-24T10:40:18;7.89;94.82
70154;DHT22;57519;51.494;-2.626;2023-04-24T10:42:47;7.99;94.32
70154;DHT22;57519;51.494;-2.626;2023-04-24T10:45:21;8.16;94.11
70154;DHT22;57519;51.494;-2.626;2023-04-24T10:47:57;8.23;93.07
70154;DHT22;57519;51.494;-2.626;2023-04-24T10:50:24;8.37;92.47
70154;DHT22;57519;51.494;-2.626;2023-04-24T10:52:50;8.53;92.19
70154;DHT22;57519;51.494;-2.626;2023-04-24T10:55:41;8.34;91.85
70154;DHT22;57519;51.494;-2.626;2023-04-24T10:58:07;8.37;92.18
70154;DHT22;57519;51.494;-2.626;2023-04-24T11:00:37;8.53;92.73
70154;DHT22;57519;51.494;-2.626;2023-04-24T11:03:05;8.41;92.24
70154;DHT22;57519;51.494;-2.626;2023-04-24T11:05:51;8.29;91.71
70154;DHT22;57519;51.494;-2.626;2023-04-24T11:08:37;8.16;91.09
70154;DHT22;57519;51.494;-2.626;2023-04-24T11:11:09;8.23;91.04
70154;DHT22;57519;51.494;-2.626;2023-04-24T11:17:26;8.10;89.59
70154;DHT22;57519;51.494;-2.626;2023-04-24T11:20:17;8.47;91.68
70154;DHT22;57519;51.494;-2.626;2023-04-24T11:26:29;8.64;90.87
70154;DHT22;57519;51.494;-2.626;2023-04-24T11:32:55;8.59;89.50
70154;DHT22;57519;51.494;-2.626;2023-04-24T11:49:23;8.64;90.86
70154;DHT22;57519;51.494;-2.626;2023-04-24T11:59:15;8.65;91.06
70154;DHT22;57519;51.494;-2.626;2023-04-24T12:05:02;8.84;90.52
70154;DHT22;57519;51.494;-2.626;2023-04-24T12:07:28;8.85;89.86
70154;DHT22;57519;51.494;-2.626;2023-04-24T12:13:32;8.99;89.05
70154;DHT22;57519;51.494;-2.626;2023-04-24T12:19:21;9.16;89.51
70154;DHT22;57519;51.494;-2.626;2023-04-24T12:22:02;9.02;86.10
70154;DHT22;57519;51.494;-2.626;2023-04-24T12:24:28;9.22;88.88
70154;DHT22;57519;51.494;-2.626;2023-04-24T12:26:53;9.42;88.32
70154;DHT22;57519;51.494;-2.626;2023-04-24T12:29:20;9.28;85.26
70154;DHT22;57519;51.494;-2.626;2023-04-24T12:31:46;9.25;86.16
70154;DHT22;57519;51.494;-2.626;2023-04-24T12:34:22;9.20;87.29
70154;DHT22;57519;51.494;-2.626;2023-04-24T12:36:48;9.18;87.39
70154;DHT22;57519;51.494;-2.626;2023-04-24T12:39:17;9.46;88.24
70154;DHT22;57519;51.494;-2.626;2023-04-24T12:41:56;9.78;88.03
70154;DHT22;57519;51.494;-2.626;2023-04-24T12:44:34;9.56;86.45
70154;DHT22;57519;51.494;-2.626;2023-04-24T12:47:02;9.63;85.67
70154;DHT22;57519;51.494;-2.626;2023-04-24T12:49:30;9.48;85.55
70154;DHT22;57519;51.494;-2.626;2023-04-24T12:51:55;9.42;85.89
70154;DHT22;57519;51.494;-2.626;2023-04-24T12:54:21;9.57;87.58
70154;DHT22;57519;51.494;-2.626;2023-04-24T12:56:47;9.76;88.19
70154;DHT22;57519;51.494;-2.626;2023-04-24T12:59:12;9.40;85.30
70154;DHT22;57519;51.494;-2.626;2023-04-24T13:01:38;9.53;86.28
70154;DHT22;57519;51.494;-2.626;2023-04-24T13:04:05;9.44;85.75
70154;DHT22;57519;51.494;-2.626;2023-04-24T13:06:30;9.67;85.86
70154;DHT22;57519;51.494;-2.626;2023-04-24T13:08:56;9.81;85.55
70154;DHT22;57519;51.494;-2.626;2023-04-24T13:11:23;9.78;84.77
70154;DHT22;57519;51.494;-2.626;2023-04-24T13:13:48;10.09;84.45
70154;DHT22;57519;51.494;-2.626;2023-04-24T13:16:14;10.35;83.53
70154;DHT22;57519;51.494;-2.626;2023-04-24T13:18:40;10.26;83.87
70154;DHT22;57519;51.494;-2.626;2023-04-24T13:21:05;10.32;84.10
70154;DHT22;57519;51.494;-2.626;2023-04-24T13:23:31;10.11;81.97
70154;DHT22;57519;51.494;-2.626;2023-04-24T13:25:56;9.85;81.21
70154;DHT22;57519;51.494;-2.626;2023-04-24T13:28:23;9.69;83.49
70154;DHT22;57519;51.494;-2.626;2023-04-24T13:30:49;9.48;82.39
70154;DHT22;57519;51.494;-2.626;2023-04-24T13:33:15;9.25;83.51
70154;DHT22;57519;51.494;-2.626;2023-04-24T13:35:40;9.14;83.94
70154;DHT22;57519;51.494;-2.626;2023-04-24T13:38:06;9.23;85.42
70154;DHT22;57519;51.494;-2.626;2023-04-24T13:40:32;9.05;84.81
70154;DHT22;57519;51.494;-2.626;2023-04-24T13:42:58;8.98;85.68
70154;DHT22;57519;51.494;-2.626;2023-04-24T13:45:23;9.01;85.56
70154;DHT22;57519;51.494;-2.626;2023-04-24T13:47:48;9.15;86.68
70154;DHT22;57519;51.494;-2.626;2023-04-24T13:50:14;9.05;84.97
70154;DHT22;57519;51.494;-2.626;2023-04-24T13:52:40;9.02;85.03
70154;DHT22;57519;51.494;-2.626;2023-04-24T13:55:06;8.88;85.07
70154;DHT22;57519;51.494;-2.626;2023-04-24T13:57:31;8.85;85.28
70154;DHT22;57519;51.494;-2.626;2023-04-24T13:59:58;8.74;85.07
70154;DHT22;57519;51.494;-2.626;2023-04-24T14:02:27;8.74;85.74
70154;DHT22;57519;51.494;-2.626;2023-04-24T14:04:52;8.63;85.22
70154;DHT22;57519;51.494;-2.626;2023-04-24T14:07:18;8.72;85.51
70154;DHT22;57519;51.494;-2.626;2023-04-24T14:09:46;8.70;86.43
70154;DHT22;57519;51.494;-2.626;2023-04-24T14:12:12;8.68;85.32
70154;DHT22;57519;51.494;-2.626;2023-04-24T14:14:39;8.68;85.84
70154;DHT22;57519;51.494;-2.626;2023-04-24T14:17:05;8.68;86.68
70154;DHT22;57519;51.494;-2.626;2023-04-24T14:19:31;8.78;87.51
70154;DHT22;57519;51.494;-2.626;2023-04-24T14:21:57;8.93;88.08
70154;DHT22;57519;51.494;-2.626;2023-04-24T14:24:23;8.85;87.17
70154;DHT22;57519;51.494;-2.626;2023-04-24T14:26:49;8.68;86.63
70154;DHT22;57519;51.494;-2.626;2023-04-24T14:29:14;8.70;87.95
70154;DHT22;57519;51.494;-2.626;2023-04-24T14:31:40;8.47;87.41
70154;DHT22;57519;51.494;-2.626;2023-04-24T14:34:05;8.46;87.72
70154;DHT22;57519;51.494;-2.626;2023-04-24T14:36:31;8.40;87.66
70154;DHT22;57519;51.494;-2.626;2023-04-24T14:38:56;8.40;88.43
70154;DHT22;57519;51.494;-2.626;2023-04-24T14:41:22;8.26;87.52
70154;DHT22;57519;51.494;-2.626;2023-04-24T14:43:47;8.02;86.47
70154;DHT22;57519;51.494;-2.626;2023-04-24T14:46:13;7.88;86.16
70154;DHT22;57519;51.494;-2.626;2023-04-24T14:48:38;7.92;87.87
70154;DHT22;57519;51.494;-2.626;2023-04-24T14:51:03;8.03;87.30
70154;DHT22;57519;51.494;-2.626;2023-04-24T14:53:29;7.95;86.20
70154;DHT22;57519;51.494;-2.626;2023-04-24T14:55:54;7.86;86.09
70154;DHT22;57519;51.494;-2.626;2023-04-24T14:58:20;7.94;87.30
70154;DHT22;57519;51.494;-2.626;2023-04-24T15:00:45;7.94;87.19
70154;DHT22;57519;51.494;-2.626;2023-04-24T15:03:11;7.77;87.51
70154;DHT22;57519;51.494;-2.626;2023-04-24T15:05:36;7.78;88.63
70154;DHT22;57519;51.494;-2.626;2023-04-24T15:08:02;7.58;86.11
70154;DHT22;57519;51.494;-2.626;2023-04-24T15:10:28;7.50;87.14
70154;DHT22;57519;51.494;-2.626;2023-04-24T15:12:54;7.48;87.91
70154;DHT22;57519;51.494;-2.626;2023-04-24T15:15:20;7.48;86.99
70154;DHT22;57519;51.494;-2.626;2023-04-24T15:17:45;7.43;87.02
70154;DHT22;57519;51.494;-2.626;2023-04-24T15:20:11;7.34;86.91
70154;DHT22;57519;51.494;-2.626;2023-04-24T15:22:36;7.42;87.30
70154;DHT22;57519;51.494;-2.626;2023-04-24T15:25:08;7.46;87.63
70154;DHT22;57519;51.494;-2.626;2023-04-24T15:27:43;7.43;88.08
70154;DHT22;57519;51.494;-2.626;2023-04-24T15:30:10;7.44;87.80
70154;DHT22;57519;51.494;-2.626;2023-04-24T15:32:36;7.40;88.13
70154;DHT22;57519;51.494;-2.626;2023-04-24T15:35:02;7.31;86.86
70154;DHT22;57519;51.494;-2.626;2023-04-24T15:37:28;7.23;88.18
70154;DHT22;57519;51.494;-2.626;2023-04-24T15:39:53;7.17;87.76
70154;DHT22;57519;51.494;-2.626;2023-04-24T15:42:19;7.09;88.82
70154;DHT22;57519;51.494;-2.626;2023-04-24T15:44:44;7.09;89.01
70154;DHT22;57519;51.494;-2.626;2023-04-24T15:47:10;7.10;89.50
70154;DHT22;57519;51.494;-2.626;2023-04-24T15:49:37;7.23;89.17
70154;DHT22;57519;51.494;-2.626;2023-04-24T15:52:03;7.19;88.75
70154;DHT22;57519;51.494;-2.626;2023-04-24T15:54:28;7.16;88.76
70154;DHT22;57519;51.494;-2.626;2023-04-24T15:56:54;7.10;89.24
70154;DHT22;57519;51.494;-2.626;2023-04-24T15:59:20;7.13;89.67
70154;DHT22;57519;51.494;-2.626;2023-04-24T16:01:47;7.07;89.57
70154;DHT22;57519;51.494;-2.626;2023-04-24T16:04:13;6.96;89.05
70154;DHT22;57519;51.494;-2.626;2023-04-24T16:06:39;6.93;89.19
70154;DHT22;57519;51.494;-2.626;2023-04-24T16:09:05;6.95;88.85
70154;DHT22;57519;51.494;-2.626;2023-04-24T16:11:33;6.93;89.54
70154;DHT22;57519;51.494;-2.626;2023-04-24T16:14:00;6.93;89.62
70154;DHT22;57519;51.494;-2.626;2023-04-24T16:16:26;6.88;88.49
70154;DHT22;57519;51.494;-2.626;2023-04-24T16:18:52;6.96;89.10
70154;DHT22;57519;51.494;-2.626;2023-04-24T16:21:19;7.05;88.32
70154;DHT22;57519;51.494;-2.626;2023-04-24T16:23:44;7.00;87.88
70154;DHT22;57519;51.494;-2.626;2023-04-24T16:26:09;7.00;88.41
70154;DHT22;57519;51.494;-2.626;2023-04-24T16:28:35;7.09;88.75
70154;DHT22;57519;51.494;-2.626;2023-04-24T16:31:00;7.00;88.25
70154;DHT22;57519;51.494;-2.626;2023-04-24T16:33:26;6.98;88.96
70154;DHT22;57519;51.494;-2.626;2023-04-24T16:35:51;6.85;88.56
70154;DHT22;57519;51.494;-2.626;2023-04-24T16:38:17;6.96;89.55
70154;DHT22;57519;51.494;-2.626;2023-04-24T16:40:43;6.91;89.07
70154;DHT22;57519;51.494;-2.626;2023-04-24T16:43:08;7.03;89.75
70154;DHT22;57519;51.494;-2.626;2023-04-24T16:45:34;7.03;89.45
70154;DHT22;57519;51.494;-2.626;2023-04-24T16:48:00;7.26;89.99
70154;DHT22;57519;51.494;-2.626;2023-04-24T16:50:26;7.34;89.53